createdAt,value
2019-06-02T00:00:26.271Z,0
2019-06-02T00:01:06.665Z,0
2019-06-02T00:01:47.063Z,0
2019-06-02T00:02:28.036Z,0
2019-06-02T00:03:07.863Z,0
2019-06-02T00:03:48.254Z,0
2019-06-02T00:04:28.681Z,0
2019-06-02T00:05:09.051Z,0
2019-06-02T00:05:49.613Z,0
2019-06-02T00:06:30.682Z,0
2019-06-02T00:07:10.301Z,0
2019-06-02T00:07:50.775Z,0
2019-06-02T00:15:15.945Z,0
2019-06-02T00:15:56.327Z,0
2019-06-02T00:16:36.738Z,0
2019-06-02T00:17:17.165Z,0
2019-06-02T00:17:57.545Z,0
2019-06-02T00:18:37.967Z,0
2019-06-02T00:19:18.382Z,0
2019-06-02T00:20:00.726Z,0
2019-06-02T00:28:46.131Z,0
2019-06-02T00:29:27.824Z,0
2019-06-02T00:30:06.949Z,0
2019-06-02T00:30:47.380Z,0
2019-06-02T00:31:27.846Z,0
2019-06-02T00:32:08.203Z,0
2019-06-02T00:33:29.845Z,0
2019-06-02T00:34:09.443Z,0
2019-06-02T00:34:49.841Z,0
2019-06-02T00:35:30.243Z,0
2019-06-02T00:36:10.633Z,0
2019-06-02T00:44:57.355Z,0
2019-06-02T00:45:37.190Z,0
2019-06-02T00:46:16.977Z,0
2019-06-02T00:49:58.970Z,0
2019-06-02T00:50:39.321Z,0
2019-06-02T00:51:19.730Z,0
2019-06-02T00:56:44.796Z,0
2019-06-02T00:57:25.191Z,0
2019-06-02T00:58:05.522Z,0
2019-06-02T00:58:45.954Z,0
2019-06-02T00:59:27.620Z,0
2019-06-02T01:00:06.737Z,0
2019-06-02T01:00:47.118Z,0
2019-06-02T01:01:27.690Z,0
2019-06-02T01:02:07.875Z,0
2019-06-02T01:02:48.363Z,0
2019-06-02T01:03:29.877Z,0
2019-06-02T01:04:09.137Z,0
2019-06-02T01:12:54.677Z,0
2019-06-02T01:13:35.095Z,0
2019-06-02T01:14:15.521Z,0
2019-06-02T01:15:07.865Z,0
2019-06-02T01:15:36.738Z,0
2019-06-02T01:16:16.756Z,0
2019-06-02T01:16:57.204Z,0
2019-06-02T01:17:37.547Z,0
2019-06-02T01:18:17.926Z,0
2019-06-02T01:18:58.331Z,0
2019-06-02T01:19:39.233Z,0
2019-06-02T01:20:19.085Z,0
2019-06-02T01:28:24.783Z,0
2019-06-02T01:29:05.250Z,0
2019-06-02T01:29:45.610Z,0
2019-06-02T01:30:25.979Z,0
2019-06-02T01:31:06.400Z,0
2019-06-02T01:31:46.851Z,0
2019-06-02T01:34:01.870Z,0
2019-06-02T01:34:42.288Z,0
2019-06-02T01:35:22.626Z,0
2019-06-02T01:41:26.176Z,0
2019-06-02T01:42:06.577Z,0
2019-06-02T01:42:46.989Z,0
2019-06-02T01:45:29.101Z,0
2019-06-02T01:46:05.378Z,0
2019-06-02T01:46:45.828Z,0
2019-06-02T01:53:30.991Z,0
2019-06-02T01:54:10.251Z,0
2019-06-02T01:54:50.654Z,0
2019-06-02T01:55:31.098Z,0
2019-06-02T01:56:11.383Z,0
2019-06-02T01:56:51.785Z,0
2019-06-02T01:57:33.138Z,0
2019-06-02T02:00:10.302Z,0
2019-06-02T02:00:50.900Z,0
2019-06-02T02:01:31.381Z,0
2019-06-02T02:08:15.373Z,0
2019-06-02T02:08:55.717Z,0
2019-06-02T02:09:36.999Z,0
2019-06-02T02:10:56.935Z,0
2019-06-02T02:11:38.240Z,0
2019-06-02T02:12:17.791Z,0
2019-06-02T02:12:59.122Z,0
2019-06-02T02:13:40.318Z,0
2019-06-02T02:14:19.919Z,0
2019-06-02T02:23:05.227Z,0
2019-06-02T02:23:46.309Z,0
2019-06-02T02:24:26.037Z,0
2019-06-02T02:25:06.445Z,0
2019-06-02T02:25:46.887Z,0
2019-06-02T02:26:27.249Z,0
2019-06-02T02:27:07.646Z,0
2019-06-02T02:27:48.055Z,0
2019-06-02T02:28:28.465Z,0
2019-06-02T02:29:08.885Z,0
2019-06-02T02:29:49.324Z,0
2019-06-02T02:30:29.774Z,0
2019-06-02T02:37:55.051Z,0
2019-06-02T02:38:35.921Z,0
2019-06-02T02:39:15.843Z,0
2019-06-02T02:39:56.246Z,0
2019-06-02T02:40:37.821Z,0
2019-06-02T02:41:16.987Z,0
2019-06-02T02:41:57.390Z,0
2019-06-02T02:42:38.356Z,0
2019-06-02T02:43:18.267Z,0
2019-06-02T02:43:58.590Z,0
2019-06-02T02:44:40.544Z,0
2019-06-02T02:45:19.442Z,0
2019-06-02T02:46:11.637Z,0
2019-06-02T02:52:05.025Z,0
2019-06-02T02:52:47.016Z,0
2019-06-02T02:53:25.801Z,0
2019-06-02T02:54:06.186Z,0
2019-06-02T02:54:46.594Z,0
2019-06-02T02:55:26.989Z,0
2019-06-02T02:56:07.402Z,0
2019-06-02T02:56:47.812Z,0
2019-06-02T02:57:28.310Z,0
2019-06-02T02:58:08.603Z,0
2019-06-02T02:58:49.016Z,0
2019-06-02T02:59:29.438Z,0
2019-06-02T03:00:09.843Z,0
2019-06-02T03:08:55.160Z,0
2019-06-02T03:09:35.869Z,0
2019-06-02T03:10:16.020Z,0
2019-06-02T03:10:56.394Z,0
2019-06-02T03:11:38.440Z,0
2019-06-02T03:12:17.232Z,0
2019-06-02T03:12:57.663Z,0
2019-06-02T03:13:38.052Z,0
2019-06-02T03:14:18.413Z,0
2019-06-02T03:14:58.779Z,0
2019-06-02T03:16:32.073Z,0
2019-06-02T03:17:00.037Z,0
2019-06-02T03:25:05.119Z,0
2019-06-02T03:25:47.426Z,0
2019-06-02T03:26:25.925Z,0
2019-06-02T03:27:06.312Z,0
2019-06-02T03:27:48.308Z,0
2019-06-02T03:28:27.022Z,0
2019-06-02T03:29:07.414Z,0
2019-06-02T03:29:47.846Z,0
2019-06-02T03:30:28.257Z,0
2019-06-02T03:31:08.612Z,0
2019-06-02T03:31:55.811Z,0
2019-06-02T03:32:29.524Z,0
2019-06-02T03:33:09.801Z,0
2019-06-02T03:41:15.170Z,5
2019-06-02T03:41:55.560Z,5
2019-06-02T03:42:37.764Z,5
2019-06-02T03:49:20.076Z,5
2019-06-02T03:50:00.462Z,5
2019-06-02T03:50:42.901Z,5
2019-06-02T03:51:21.296Z,10
2019-06-02T03:52:01.641Z,10
2019-06-02T03:52:44.387Z,10
2019-06-02T03:53:22.467Z,10
2019-06-02T03:54:02.874Z,10
2019-06-02T03:54:44.511Z,10
2019-06-02T03:55:23.690Z,10
2019-06-02T03:56:04.105Z,10
2019-06-02T03:56:44.685Z,10
2019-06-02T03:57:24.955Z,10
2019-06-02T04:05:29.939Z,25
2019-06-02T04:06:10.284Z,25
2019-06-02T04:06:50.689Z,30
2019-06-02T04:07:31.121Z,40
2019-06-02T04:08:11.557Z,65
2019-06-02T04:08:51.956Z,95
2019-06-02T04:09:32.370Z,125
2019-06-02T04:10:12.786Z,140
2019-06-02T04:10:53.136Z,145
2019-06-02T04:11:33.579Z,155
2019-06-02T04:12:13.968Z,165
2019-06-02T04:12:54.362Z,175
2019-06-02T04:13:34.755Z,180
2019-06-02T04:21:12.797Z,85
2019-06-02T04:21:53.058Z,80
2019-06-02T04:22:33.570Z,85
2019-06-02T05:06:45.190Z,205
2019-06-02T05:07:25.418Z,205
2019-06-02T05:08:05.847Z,205
2019-06-02T05:14:50.448Z,250
2019-06-02T05:15:30.654Z,245
2019-06-02T05:16:11.064Z,240
2019-06-02T05:16:52.637Z,240
2019-06-02T05:17:31.863Z,245
2019-06-02T05:18:12.273Z,245
2019-06-02T05:18:56.944Z,250
2019-06-02T05:19:33.070Z,250
2019-06-02T05:20:13.516Z,255
2019-06-02T05:20:53.870Z,255
2019-06-02T05:21:34.277Z,255
2019-06-02T05:25:41.720Z,265
2019-06-02T05:26:38.929Z,270
2019-06-02T05:30:19.294Z,280
2019-06-02T05:30:59.588Z,280
2019-06-02T05:31:40.011Z,285
2019-06-02T05:38:24.005Z,310
2019-06-02T05:39:04.700Z,315
2019-06-02T05:39:45.066Z,315
2019-06-02T05:40:25.437Z,315
2019-06-02T05:41:05.852Z,315
2019-06-02T05:41:47.292Z,315
2019-06-02T05:42:26.683Z,315
2019-06-02T05:43:07.130Z,320
2019-06-02T05:43:47.454Z,325
2019-06-02T05:44:27.847Z,325
2019-06-02T05:45:08.268Z,325
2019-06-02T05:45:49.812Z,330
2019-06-02T05:53:14.100Z,370
2019-06-02T05:53:54.754Z,370
2019-06-02T05:54:34.910Z,370
2019-06-02T05:55:15.377Z,375
2019-06-02T05:55:57.256Z,385
2019-06-02T05:56:36.118Z,380
2019-06-02T05:57:16.518Z,380
2019-06-02T05:57:57.345Z,385
2019-06-02T05:58:37.363Z,390
2019-06-02T05:59:17.759Z,395
2019-06-02T05:59:58.133Z,405
2019-06-02T06:00:38.544Z,415
2019-06-02T06:01:18.988Z,420
2019-06-02T06:09:23.995Z,555
2019-06-02T06:10:04.425Z,575
2019-06-02T06:10:44.893Z,590
2019-06-02T06:11:25.260Z,620
2019-06-02T06:12:05.705Z,635
2019-06-02T06:12:46.061Z,845
2019-06-02T06:13:26.613Z,1150
2019-06-02T06:14:06.974Z,1460
2019-06-02T06:14:47.364Z,1665
2019-06-02T06:15:27.776Z,1615
2019-06-02T06:16:08.179Z,1385
2019-06-02T06:16:49.427Z,1230
2019-06-02T06:25:34.010Z,1230
2019-06-02T06:26:14.335Z,1280
2019-06-02T06:26:54.751Z,1300
2019-06-02T06:27:35.171Z,1290
2019-06-02T06:28:15.584Z,1280
2019-06-02T06:28:57.206Z,1295
2019-06-02T06:29:36.435Z,1325
2019-06-02T06:30:16.885Z,1355
2019-06-02T06:30:58.153Z,1400
2019-06-02T06:31:37.743Z,1440
2019-06-02T06:32:18.157Z,1450
2019-06-02T06:32:59.481Z,1430
2019-06-02T06:40:24.166Z,1285
2019-06-02T06:41:04.582Z,1265
2019-06-02T06:41:44.999Z,1255
2019-06-02T06:42:25.396Z,1250
2019-06-02T06:43:05.794Z,1215
2019-06-02T06:43:46.147Z,1180
2019-06-02T06:44:26.625Z,1010
2019-06-02T06:48:07.153Z,510
2019-06-02T06:48:50.609Z,495
2019-06-02T06:49:27.949Z,480
2019-06-02T06:50:48.742Z,480
2019-06-02T06:51:29.125Z,485
2019-06-02T06:52:09.557Z,495
2019-06-02T07:00:55.551Z,570
2019-06-02T07:01:35.269Z,545
2019-06-02T07:02:15.754Z,545
2019-06-02T07:02:57.110Z,550
2019-06-02T07:03:36.760Z,550
2019-06-02T07:04:17.138Z,545
2019-06-02T07:04:57.522Z,540
2019-06-02T07:05:37.880Z,535
2019-06-02T07:06:18.330Z,530
2019-06-02T07:06:59.295Z,530
2019-06-02T07:07:39.107Z,515
2019-06-02T07:08:19.472Z,500
2019-06-02T07:17:05.821Z,465
2019-06-02T07:17:45.286Z,460
2019-06-02T07:18:25.698Z,465
2019-06-02T07:19:15.869Z,465
2019-06-02T07:19:46.547Z,455
2019-06-02T07:20:26.834Z,445
2019-06-02T07:26:26.149Z,325
2019-06-02T07:27:07.257Z,285
2019-06-02T07:27:46.929Z,250
2019-06-02T07:34:31.043Z,180
2019-06-02T07:35:11.475Z,175
2019-06-02T07:35:51.909Z,170
2019-06-02T07:36:32.308Z,165
2019-06-02T07:37:12.690Z,160
2019-06-02T07:37:53.106Z,155
2019-06-02T07:38:33.483Z,150
2019-06-02T07:39:13.872Z,150
2019-06-02T07:39:54.292Z,145
2019-06-02T07:40:34.718Z,140
2019-06-02T07:41:15.122Z,140
2019-06-02T07:41:55.575Z,135
2019-06-02T07:51:21.785Z,110
2019-06-02T07:52:01.988Z,110
2019-06-02T07:52:42.460Z,110
2019-06-02T07:53:22.813Z,110
2019-06-02T07:54:03.896Z,105
2019-06-02T07:54:43.596Z,105
2019-06-02T07:55:23.980Z,105
2019-06-02T07:56:04.843Z,105
2019-06-02T07:56:44.783Z,105
2019-06-02T07:57:25.212Z,100
2019-06-02T07:58:05.962Z,100
2019-06-02T08:06:50.993Z,90
2019-06-02T08:07:31.433Z,90
2019-06-02T08:08:11.982Z,90
2019-06-02T08:08:52.318Z,90
2019-06-02T08:09:32.689Z,90
2019-06-02T08:10:13.124Z,90
2019-06-02T08:10:53.545Z,90
2019-06-02T08:11:33.998Z,85
2019-06-02T08:12:14.424Z,85
2019-06-02T08:12:54.809Z,85
2019-06-02T08:13:35.295Z,85
2019-06-02T08:20:21.234Z,80
2019-06-02T08:21:02.598Z,80
2019-06-02T08:21:41.986Z,80
2019-06-02T08:22:22.325Z,80
2019-06-02T08:23:02.804Z,80
2019-06-02T08:23:43.083Z,80
2019-06-02T08:24:23.467Z,80
2019-06-02T08:25:04.710Z,80
2019-06-02T08:25:44.339Z,80
2019-06-02T08:26:24.704Z,80
2019-06-02T08:27:05.145Z,80
2019-06-02T08:27:45.551Z,80
2019-06-02T08:33:51.300Z,75
2019-06-02T08:34:31.734Z,75
2019-06-02T08:35:12.783Z,75
2019-06-02T08:35:53.199Z,75
2019-06-02T08:36:33.849Z,75
2019-06-02T08:37:13.990Z,75
2019-06-02T08:37:54.415Z,75
2019-06-02T08:38:34.748Z,75
2019-06-02T08:39:15.155Z,75
2019-06-02T08:39:55.587Z,75
2019-06-02T08:40:35.985Z,75
2019-06-02T08:49:21.120Z,75
2019-06-02T08:50:09.212Z,75
2019-06-02T08:50:42.092Z,70
2019-06-02T08:51:23.936Z,70
2019-06-02T08:52:14.837Z,70
2019-06-02T08:53:27.174Z,70
2019-06-02T08:56:12.798Z,70
2019-06-02T08:56:52.666Z,70
2019-06-02T08:57:33.081Z,70
2019-06-02T08:58:16.618Z,70
2019-06-02T08:58:54.002Z,70
2019-06-02T08:59:34.320Z,70
2019-06-02T09:00:55.144Z,70
2019-06-02T09:01:35.530Z,70
2019-06-02T09:02:15.956Z,70
2019-06-02T09:09:01.967Z,70
2019-06-02T09:09:42.385Z,70
2019-06-02T09:10:22.936Z,70
2019-06-02T09:11:04.033Z,70
2019-06-02T09:11:43.628Z,70
2019-06-02T09:12:24.006Z,70
2019-06-02T09:13:04.413Z,70
2019-06-02T09:13:44.879Z,70
2019-06-02T09:14:25.287Z,70
2019-06-02T09:15:06.413Z,70
2019-06-02T09:22:31.008Z,65
2019-06-02T09:23:12.361Z,65
2019-06-02T09:23:51.895Z,65
2019-06-02T09:24:32.360Z,65
2019-06-02T09:25:13.351Z,70
2019-06-02T09:25:53.106Z,65
2019-06-02T09:26:33.505Z,65
2019-06-02T09:27:13.922Z,65
2019-06-02T09:27:54.342Z,65
2019-06-02T09:28:34.752Z,65
2019-06-02T09:29:15.306Z,65
2019-06-02T09:29:55.693Z,65
2019-06-02T09:38:41.994Z,65
2019-06-02T09:39:21.733Z,65
2019-06-02T09:40:02.142Z,65
2019-06-02T09:40:42.526Z,65
2019-06-02T09:41:22.976Z,65
2019-06-02T09:42:03.525Z,65
2019-06-02T09:42:43.762Z,65
2019-06-02T09:43:24.276Z,65
2019-06-02T09:44:05.308Z,65
2019-06-02T09:44:45.113Z,65
2019-06-02T09:45:25.637Z,65
2019-06-02T09:52:55.200Z,65
2019-06-02T09:53:31.721Z,65
2019-06-02T09:54:12.190Z,65
2019-06-02T09:54:55.046Z,65
2019-06-02T09:55:35.679Z,65
2019-06-02T09:58:03.626Z,65
2019-06-02T09:58:44.043Z,65
2019-06-02T09:59:24.425Z,65
2019-06-02T10:06:11.647Z,65
2019-06-02T10:06:48.952Z,65
2019-06-02T10:07:29.321Z,65
2019-06-02T10:08:09.989Z,65
2019-06-02T10:10:29.143Z,65
2019-06-02T10:11:10.487Z,65
2019-06-02T10:11:50.952Z,65
2019-06-02T10:16:35.507Z,60
2019-06-02T10:17:16.402Z,65
2019-06-02T10:17:56.277Z,60
2019-06-02T10:18:36.671Z,60
2019-06-02T10:19:17.087Z,60
2019-06-02T10:19:58.038Z,60
2019-06-02T10:20:38.443Z,60
2019-06-02T10:21:18.861Z,60
2019-06-02T10:28:03.976Z,60
2019-06-02T11:07:22.745Z,60
2019-06-02T11:08:03.099Z,60
2019-06-02T11:08:43.491Z,60
2019-06-02T11:13:27.451Z,60
2019-06-02T11:14:09.366Z,60
2019-06-02T11:14:48.263Z,60
2019-06-02T11:15:28.753Z,60
2019-06-02T11:16:09.697Z,55
2019-06-02T11:16:49.956Z,60
2019-06-02T11:17:31.725Z,55
2019-06-02T11:18:12.314Z,60
2019-06-02T11:26:18.595Z,55
2019-06-02T11:26:58.162Z,55
2019-06-02T11:27:38.600Z,55
2019-06-02T11:28:19.067Z,55
2019-06-02T11:28:59.607Z,55
2019-06-02T11:29:40.032Z,55
2019-06-02T11:30:21.189Z,55
2019-06-02T11:31:01.219Z,55
2019-06-02T11:31:41.646Z,60
2019-06-02T11:32:22.191Z,55
2019-06-02T11:39:47.707Z,55
2019-06-02T11:40:41.859Z,55
2019-06-02T11:41:08.737Z,55
2019-06-02T11:41:49.093Z,55
2019-06-02T11:42:29.568Z,55
2019-06-02T11:43:10.122Z,55
2019-06-02T11:43:50.607Z,55
2019-06-02T11:44:31.046Z,55
2019-06-02T11:45:12.163Z,55
2019-06-02T11:45:52.159Z,55
2019-06-02T11:53:18.055Z,55
2019-06-02T11:53:58.656Z,55
2019-06-02T11:54:38.930Z,55
2019-06-02T11:55:20.034Z,55
2019-06-02T11:56:00.804Z,55
2019-06-02T11:56:41.451Z,55
2019-06-02T11:57:22.429Z,55
2019-06-02T11:58:02.281Z,55
2019-06-02T12:01:36.031Z,55
2019-06-02T12:02:16.532Z,55
2019-06-02T12:02:56.741Z,55
2019-06-02T12:05:50.500Z,55
2019-06-02T12:06:30.946Z,55
2019-06-02T12:07:12.314Z,55
2019-06-02T12:09:15.102Z,55
2019-06-02T12:09:55.760Z,60
2019-06-02T12:10:36.202Z,65
2019-06-02T12:11:16.625Z,65
2019-06-02T12:11:57.059Z,60
2019-06-02T12:12:38.339Z,55
2019-06-02T12:13:19.136Z,55
2019-06-02T12:13:59.579Z,55
2019-06-02T12:20:45.967Z,55
2019-06-02T12:21:26.514Z,55
2019-06-02T12:22:14.472Z,55
2019-06-02T12:22:47.183Z,55
2019-06-02T12:23:27.558Z,55
2019-06-02T12:24:08.151Z,55
2019-06-02T12:24:48.748Z,55
2019-06-02T12:25:28.999Z,55
2019-06-02T12:32:55.230Z,55
2019-06-02T12:33:35.587Z,55
2019-06-02T12:34:16.174Z,55
2019-06-02T12:34:56.608Z,55
2019-06-02T12:35:38.989Z,55
2019-06-02T12:36:19.968Z,55
2019-06-02T12:43:45.140Z,55
2019-06-02T12:44:30.653Z,50
2019-06-02T12:45:06.437Z,55
2019-06-02T12:45:46.804Z,55
2019-06-02T12:46:28.785Z,50
2019-06-02T12:47:07.690Z,50
2019-06-02T12:47:49.082Z,50
2019-06-02T12:48:29.655Z,50
2019-06-02T12:57:15.426Z,50
2019-06-02T12:57:55.802Z,50
2019-06-02T12:58:36.127Z,50
2019-06-02T12:59:17.073Z,50
2019-06-02T12:59:56.944Z,50
2019-06-02T13:00:37.356Z,50
2019-06-02T13:01:17.760Z,50
2019-06-02T13:01:58.188Z,50
2019-06-02T13:02:38.567Z,50
2019-06-02T13:03:19.488Z,50
2019-06-02T13:03:59.573Z,50
2019-06-02T13:10:45.487Z,50
2019-06-02T13:11:26.246Z,50
2019-06-02T13:12:06.380Z,50
2019-06-02T13:12:46.728Z,50
2019-06-02T13:13:28.201Z,50
2019-06-02T13:14:07.469Z,50
2019-06-02T13:14:47.867Z,50
2019-06-02T13:15:28.572Z,50
2019-06-02T13:16:08.762Z,50
2019-06-02T13:18:46.857Z,50
2019-06-02T13:19:28.568Z,50
2019-06-02T13:20:07.792Z,50
2019-06-02T13:23:31.633Z,50
2019-06-02T13:24:12.060Z,50
2019-06-02T13:24:52.479Z,50
2019-06-02T13:25:32.882Z,50
2019-06-02T13:26:13.248Z,50
2019-06-02T13:26:53.665Z,50
2019-06-02T13:27:34.081Z,50
2019-06-02T13:28:14.469Z,50
2019-06-02T13:28:54.833Z,50
2019-06-02T13:29:35.272Z,50
2019-06-02T13:30:15.877Z,50
2019-06-02T13:30:56.278Z,50
2019-06-02T13:37:41.981Z,50
2019-06-02T13:38:22.837Z,50
2019-06-02T13:39:02.966Z,50
2019-06-02T13:39:43.362Z,50
2019-06-02T13:40:27.696Z,50
2019-06-02T13:41:05.991Z,30
2019-06-02T13:41:46.182Z,50
2019-06-02T13:42:28.023Z,50
2019-06-02T13:45:21.375Z,50
2019-06-02T13:46:00.527Z,50
2019-06-02T13:46:40.873Z,50
2019-06-02T13:50:05.029Z,50
2019-06-02T13:50:45.406Z,50
2019-06-02T13:51:25.960Z,50
2019-06-02T13:52:06.655Z,50
2019-06-02T13:52:47.241Z,50
2019-06-02T13:53:28.191Z,50
2019-06-02T13:54:08.676Z,50
2019-06-02T13:54:49.553Z,50
2019-06-02T13:59:35.535Z,50
2019-06-02T14:00:20.658Z,50
2019-06-02T14:00:57.408Z,50
2019-06-02T14:01:38.142Z,50
2019-06-02T14:02:21.445Z,50
2019-06-02T14:03:00.366Z,50
2019-06-02T14:07:05.345Z,50
2019-06-02T14:07:45.806Z,50
2019-06-02T14:08:26.350Z,50
2019-06-02T14:09:06.471Z,50
2019-06-02T14:09:46.957Z,50
2019-06-02T14:10:31.110Z,50
2019-06-02T14:11:08.843Z,50
2019-06-02T14:11:49.305Z,50
2019-06-02T14:12:30.682Z,50
2019-06-02T14:20:35.764Z,50
2019-06-02T14:21:16.236Z,50
2019-06-02T14:21:56.523Z,50
2019-06-02T14:22:36.961Z,45
2019-06-02T14:23:24.727Z,45
2019-06-02T14:23:57.780Z,45
2019-06-02T14:24:38.317Z,45
2019-06-02T14:25:59.090Z,45
2019-06-02T14:26:39.543Z,45
2019-06-02T14:32:45.231Z,45
2019-06-02T14:33:25.816Z,45
2019-06-02T14:34:06.222Z,45
2019-06-02T14:34:46.646Z,45
2019-06-02T14:35:26.978Z,45
2019-06-02T14:36:07.591Z,45
2019-06-02T14:36:47.889Z,45
2019-06-02T14:37:29.248Z,45
2019-06-02T14:38:08.746Z,45
2019-06-02T14:38:49.163Z,45
2019-06-02T14:39:32.643Z,45
2019-06-02T14:44:55.540Z,45
2019-06-02T14:45:37.779Z,45
2019-06-02T14:46:18.171Z,45
2019-06-02T14:46:58.587Z,45
2019-06-02T14:47:39.122Z,45
2019-06-02T14:55:44.697Z,45
2019-06-02T14:56:25.222Z,45
2019-06-02T14:57:07.389Z,45
2019-06-02T14:57:47.727Z,45
2019-06-02T14:58:28.092Z,45
2019-06-02T14:59:08.623Z,45
2019-06-02T14:59:49.117Z,45
2019-06-02T15:07:15.053Z,40
2019-06-02T15:07:55.522Z,40
2019-06-02T15:08:37.797Z,40
2019-06-02T15:09:18.274Z,40
2019-06-02T15:09:59.586Z,40
2019-06-02T15:17:24.775Z,40
2019-06-02T15:18:05.136Z,40
2019-06-02T15:18:45.744Z,40
2019-06-02T15:19:27.045Z,40
2019-06-02T15:20:06.534Z,40
2019-06-02T15:23:05.770Z,40
2019-06-02T15:23:59.389Z,40
2019-06-02T15:24:27.408Z,40
2019-06-02T15:30:32.106Z,40
2019-06-02T15:31:10.925Z,40
2019-06-02T15:31:51.419Z,40
2019-06-02T15:32:32.040Z,40
2019-06-02T15:33:12.192Z,40
2019-06-02T15:33:52.711Z,40
2019-06-02T15:34:34.545Z,40
2019-06-02T15:35:15.230Z,40
2019-06-02T15:43:20.559Z,40
2019-06-02T15:44:00.901Z,40
2019-06-02T15:44:41.337Z,40
2019-06-02T15:45:21.862Z,40
2019-06-02T15:46:02.337Z,40
2019-06-02T15:46:42.642Z,40
2019-06-02T15:47:23.110Z,35
2019-06-02T15:48:03.445Z,35
2019-06-02T15:48:44.736Z,35
2019-06-02T15:49:26.517Z,35
2019-06-02T15:50:05.154Z,35
2019-06-02T15:58:10.925Z,35
2019-06-02T15:58:51.364Z,35
2019-06-02T15:59:39.470Z,35
2019-06-02T16:01:40.546Z,35
2019-06-02T16:02:21.753Z,35
2019-06-02T16:03:01.820Z,35
2019-06-02T16:03:43.122Z,35
2019-06-02T16:04:23.528Z,35
2019-06-02T16:05:03.928Z,35
2019-06-02T16:05:44.355Z,35
2019-06-02T16:06:24.941Z,35
2019-06-02T16:07:05.609Z,35
2019-06-02T16:11:11.674Z,35
2019-06-02T16:11:52.185Z,35
2019-06-02T16:12:33.206Z,35
2019-06-02T16:13:12.976Z,35
2019-06-02T16:13:53.404Z,35
2019-06-02T16:14:34.527Z,35
2019-06-02T16:15:14.291Z,35
2019-06-02T16:16:35.243Z,35
2019-06-02T16:22:00.399Z,35
2019-06-02T16:22:41.645Z,35
2019-06-02T16:23:21.192Z,35
2019-06-02T16:24:01.619Z,35
2019-06-02T16:24:49.702Z,35
2019-06-02T16:25:24.357Z,35
2019-06-02T16:26:04.750Z,35
2019-06-02T16:26:45.158Z,35
2019-06-02T17:09:06.243Z,30
2019-06-02T17:09:46.578Z,30
2019-06-02T17:10:26.941Z,30
2019-06-02T17:13:50.770Z,30
2019-06-02T17:14:31.505Z,25
2019-06-02T17:15:11.689Z,25
2019-06-02T17:15:52.104Z,25
2019-06-02T17:16:32.521Z,25
2019-06-02T17:17:14.015Z,25
2019-06-02T17:17:58.649Z,25
2019-06-02T17:18:33.662Z,25
2019-06-02T17:19:14.058Z,25
2019-06-02T17:19:54.541Z,25
2019-06-02T17:20:34.871Z,25
2019-06-02T17:21:15.645Z,25
2019-06-02T17:28:00.903Z,25
2019-06-02T17:28:41.482Z,25
2019-06-02T17:29:21.759Z,25
2019-06-02T17:30:02.255Z,25
2019-06-02T17:30:43.811Z,25
2019-06-02T17:31:23.906Z,25
2019-06-02T17:32:04.470Z,25
2019-06-02T17:36:50.976Z,25
2019-06-02T17:37:35.242Z,25
2019-06-02T17:38:11.814Z,25
2019-06-02T17:38:52.197Z,25
2019-06-02T17:39:32.928Z,25
2019-06-02T17:40:13.540Z,25
2019-06-02T17:40:54.162Z,25
2019-06-02T17:41:34.497Z,25
2019-06-02T17:52:50.814Z,20
2019-06-02T17:53:31.545Z,20
2019-06-02T17:54:11.908Z,20
2019-06-02T17:56:55.600Z,20
2019-06-02T17:57:36.053Z,20
2019-06-02T17:58:16.457Z,20
2019-06-02T17:58:56.886Z,20
2019-06-02T17:59:40.512Z,20
2019-06-02T18:00:19.639Z,20
2019-06-02T18:00:59.980Z,20
2019-06-02T18:01:40.856Z,20
2019-06-02T18:09:45.589Z,20
2019-06-02T18:10:26.076Z,20
2019-06-02T18:11:09.180Z,20
2019-06-02T18:11:47.599Z,20
2019-06-02T18:12:27.491Z,20
2019-06-02T18:13:08.201Z,20
2019-06-02T18:13:50.162Z,20
2019-06-02T18:14:30.795Z,15
2019-06-02T18:20:35.621Z,15
2019-06-02T18:21:16.491Z,15
2019-06-02T18:21:56.783Z,15
2019-06-02T18:22:37.204Z,15
2019-06-02T18:23:19.571Z,15
2019-06-02T18:23:59.776Z,15
2019-06-02T18:24:40.129Z,15
2019-06-02T18:32:53.093Z,15
2019-06-02T18:33:33.428Z,15
2019-06-02T18:34:13.854Z,15
2019-06-02T18:38:17.901Z,10
2019-06-02T18:38:58.179Z,10
2019-06-02T18:39:38.671Z,10
2019-06-02T18:40:19.220Z,10
2019-06-02T18:41:01.029Z,10
2019-06-02T18:41:40.494Z,10
2019-06-02T18:42:20.596Z,10
2019-06-02T18:43:41.611Z,10
2019-06-02T18:44:22.212Z,10
2019-06-02T18:47:15.491Z,10
2019-06-02T18:47:56.045Z,10
2019-06-02T18:48:36.792Z,10
2019-06-02T18:52:40.211Z,10
2019-06-02T18:53:20.630Z,10
2019-06-02T18:54:00.886Z,10
2019-06-02T18:54:41.657Z,10
2019-06-02T18:55:22.165Z,10
2019-06-02T18:56:10.757Z,10
2019-06-02T18:56:43.991Z,10
2019-06-02T18:57:24.426Z,5
2019-06-02T18:58:04.682Z,5
2019-06-02T18:58:45.205Z,5
2019-06-02T19:06:50.301Z,5
2019-06-02T19:07:30.747Z,5
2019-06-02T19:08:11.196Z,5
2019-06-02T19:08:52.036Z,5
2019-06-02T19:09:32.034Z,5
2019-06-02T19:10:12.552Z,5
2019-06-02T19:10:54.423Z,5
2019-06-02T19:11:34.253Z,5
2019-06-02T19:12:15.598Z,5
2019-06-02T19:19:00.090Z,0
2019-06-02T19:19:40.469Z,0
2019-06-02T19:20:20.897Z,0
2019-06-02T19:21:01.577Z,0
2019-06-02T19:21:41.830Z,0
2019-06-02T19:22:23.409Z,0
2019-06-02T19:23:02.794Z,0
2019-06-02T19:23:43.283Z,0
2019-06-02T19:24:23.642Z,0
2019-06-02T19:25:44.909Z,0
2019-06-02T19:32:03.412Z,0
2019-06-02T19:32:43.859Z,0
2019-06-02T19:33:24.260Z,0
2019-06-02T19:38:07.994Z,0
2019-06-02T19:38:49.469Z,0
2019-06-02T19:39:28.795Z,0
2019-06-02T19:40:09.277Z,0
2019-06-02T19:40:50.845Z,0
2019-06-02T19:41:30.951Z,0
2019-06-02T19:42:10.601Z,0
2019-06-02T19:42:51.066Z,0
2019-06-02T19:43:31.469Z,0
2019-06-02T19:44:11.845Z,0
2019-06-02T19:44:53.449Z,0
2019-06-02T19:45:32.639Z,0
2019-06-02T19:50:58.167Z,0
2019-06-02T19:51:38.214Z,0
2019-06-02T19:52:18.684Z,0
2019-06-02T19:53:00.523Z,0
2019-06-02T19:53:39.669Z,0
2019-06-02T19:54:20.045Z,0
2019-06-02T19:55:01.109Z,0
2019-06-02T19:55:40.919Z,0
2019-06-02T19:56:21.560Z,0
2019-06-02T19:57:01.829Z,0
2019-06-02T19:57:42.383Z,0
2019-06-02T20:04:53.266Z,0
2019-06-02T20:05:34.168Z,0
2019-06-02T20:06:14.593Z,0
2019-06-02T20:11:38.191Z,0
2019-06-02T20:12:20.249Z,0
2019-06-02T20:13:00.152Z,0
2019-06-02T20:13:39.632Z,0
2019-06-02T20:14:20.031Z,0
2019-06-02T20:15:01.896Z,0
2019-06-02T20:15:40.840Z,0
2019-06-02T20:16:21.322Z,0
2019-06-02T20:17:01.868Z,0
2019-06-02T20:17:42.081Z,0
2019-06-02T20:18:22.552Z,0
2019-06-02T20:19:02.933Z,0
2019-06-02T20:27:12.100Z,0
2019-06-02T20:27:48.987Z,0
2019-06-02T20:28:29.382Z,0
2019-06-02T20:29:09.794Z,0
2019-06-02T20:29:50.201Z,0
2019-06-02T20:30:30.629Z,0
2019-06-02T20:31:11.040Z,0
2019-06-02T20:31:51.473Z,0
2019-06-02T20:32:31.927Z,0
2019-06-02T20:33:12.330Z,0
2019-06-02T20:33:53.887Z,0
2019-06-02T20:42:38.267Z,0
2019-06-02T20:43:18.651Z,0
2019-06-02T20:43:59.061Z,0
2019-06-02T20:44:39.464Z,0
2019-06-02T20:45:19.870Z,0
2019-06-02T20:46:00.998Z,0
2019-06-02T20:46:40.681Z,0
2019-06-02T20:47:21.106Z,0
2019-06-02T20:48:41.970Z,0
2019-06-02T20:49:22.400Z,0
2019-06-02T20:50:03.415Z,0
2019-06-02T20:58:48.311Z,0
2019-06-02T20:59:28.730Z,0
2019-06-02T21:02:06.999Z,0
2019-06-02T21:02:47.074Z,0
2019-06-02T21:03:27.499Z,0
2019-06-02T21:10:11.640Z,0
2019-06-02T21:10:52.069Z,0
2019-06-02T21:11:32.473Z,0
2019-06-02T21:12:12.897Z,0
2019-06-02T21:13:33.733Z,0
2019-06-02T21:14:14.170Z,0
2019-06-02T21:14:54.580Z,0
2019-06-02T21:15:34.971Z,0
2019-06-02T21:16:15.396Z,0
2019-06-02T21:16:55.833Z,0
2019-06-02T21:21:41.409Z,0
2019-06-02T21:22:21.847Z,0
2019-06-02T21:23:02.572Z,0
2019-06-02T21:29:46.483Z,0
2019-06-02T21:30:26.903Z,0
2019-06-02T21:31:07.421Z,0
2019-06-02T21:31:47.777Z,0
2019-06-02T21:32:28.241Z,0
2019-06-02T21:33:09.905Z,0
2019-06-02T21:33:49.040Z,0
2019-06-02T21:34:29.471Z,0
2019-06-02T21:35:10.054Z,0
2019-06-02T21:35:50.346Z,0
2019-06-02T21:36:30.771Z,0
2019-06-02T21:45:16.164Z,0
2019-06-02T21:45:56.577Z,0
2019-06-02T21:46:36.968Z,0
2019-06-02T21:47:17.395Z,0
2019-06-02T21:47:57.827Z,0
2019-06-02T21:48:38.228Z,0
2019-06-02T21:49:18.647Z,0
2019-06-02T21:50:00.288Z,0
2019-06-02T21:50:39.522Z,0
2019-06-02T21:51:19.946Z,0
2019-06-02T21:53:57.897Z,0
2019-06-02T21:54:38.319Z,0